Terminal Aerodrome Forecast
Issued by NWS

Home | Current Version | Previous Version | Text Only | Print | Product List | Glossary On
Versions: 1 2 3 4 5 6 7 8 9 10 11 12 13 14
000
FTUS43 KSGF 050520
TAFJLN
TAF
KJLN 050520Z 0506/0606 18006KT P6SM SCT250
     FM050900 VRB04KT P6SM OVC250
     FM051600 21007KT P6SM SCT150 OVC250
     FM052000 18005KT P6SM OVC150=

USA.gov is the U.S. government's official web portal to all federal, state and local government web resources and services.